Terminal Aerodrome Forecast
Issued by NWS Dodge City, KS

Home | Current Version | Previous Version | Text Only | Print | Product List | Glossary On
Versions: 1 2 3 4 5 6 7 8 9 10 11 12 13 14 15 16
000
FTUS43 KDDC 182206 AAA
TAFDDC
TAF AMD
KDDC 182206Z 1822/1918 21025G41KT P6SM SKC
     FM190000 19018G24KT P6SM SCT250 WS020/22045KT
     FM190900 35014KT P6SM SCT250
     FM191300 36013KT P6SM BKN015=

USA.gov is the U.S. government's official web portal to all federal, state and local government web resources and services.